Time;durP1;ratioP1;P1;durP2;ratioP2;P2;SDS_P1;SDS_P2;PMS_P1;PMS_P2;Temp;Humidity;BMP_temperature;BMP_pressure;BME280_temperature;BME280_humidity;BME280_pressure;Samples;Min_cycle;Max_cycle;Signal;HPM_P1;HPM_P2
2021/03/16 00:00:28;;;;;;;31.38;5.07;;;;;;;4.80;84.07;102140.38;5274220;28;20031;-68
2021/03/16 00:02:59;;;;;;;22.10;3.83;;;;;;;4.78;83.27;102133.56;5275216;28;20111;-68
2021/03/16 00:05:30;;;;;;;24.13;4.32;;;;;;;4.77;83.30;102137.91;5275707;28;20074;-69
2021/03/16 00:08:02;;;;;;;27.38;4.72;;;;;;;4.77;83.36;102147.44;5275420;28;20039;-69
2021/03/16 00:10:33;;;;;;;26.42;4.72;;;;;;;4.74;83.64;102144.97;5276624;28;20183;-69
2021/03/16 00:13:05;;;;;;;29.83;4.78;;;;;;;4.65;84.10;102140.97;5274764;28;20054;-69
2021/03/16 00:15:36;;;;;;;26.55;4.47;;;;;;;4.64;84.60;102147.06;5275137;28;20030;-68
2021/03/16 00:18:13;;;;;;;29.25;4.18;;;;;;;4.64;83.94;102158.28;5276588;28;20057;-68
2021/03/16 00:20:46;;;;;;;31.38;4.68;;;;;;;4.61;84.54;102153.22;5279019;28;20678;-69
2021/03/16 00:23:17;;;;;;;33.60;5.30;;;;;;;4.62;84.30;102162.72;5275072;28;20032;-69
2021/03/16 00:25:49;;;;;;;20.67;5.00;;;;;;;4.64;84.46;102162.66;5276634;28;20276;-69
2021/03/16 00:28:21;;;;;;;26.90;4.70;;;;;;;4.60;85.12;102166.28;5277751;28;20039;-68
2021/03/16 00:30:52;;;;;;;28.05;4.57;;;;;;;4.63;85.07;102168.75;5276377;28;20040;-69
2021/03/16 00:33:24;;;;;;;24.58;4.25;;;;;;;4.61;84.23;102167.94;5278938;28;20702;-69
2021/03/16 00:35:55;;;;;;;35.42;5.72;;;;;;;4.62;85.31;102177.41;5277257;28;20348;-68
2021/03/16 00:38:26;;;;;;;26.38;3.90;;;;;;;4.65;84.35;102174.72;5275354;28;20032;-68
2021/03/16 00:40:58;;;;;;;22.67;3.97;;;;;;;4.59;84.88;102170.63;5279256;28;20035;-68
2021/03/16 00:43:29;;;;;;;25.90;5.25;;;;;;;4.68;84.47;102173.75;5284019;28;20566;-69
2021/03/16 00:46:01;;;;;;;31.33;4.60;;;;;;;4.68;84.84;102173.75;5283429;28;20054;-69
2021/03/16 00:48:32;;;;;;;27.50;4.90;;;;;;;4.75;84.13;102180.41;5280049;28;20032;-68
2021/03/16 00:51:03;;;;;;;22.92;4.13;;;;;;;4.72;85.08;102185.72;5280310;28;20326;-69
2021/03/16 00:53:35;;;;;;;31.30;4.80;;;;;;;4.71;84.62;102181.44;5284645;28;20036;-68
2021/03/16 00:56:06;;;;;;;30.35;5.20;;;;;;;4.68;85.26;102184.16;5280624;28;20493;-69
2021/03/16 00:58:37;;;;;;;29.90;5.53;;;;;;;4.65;84.62;102174.72;5282680;28;20028;-68
2021/03/16 01:01:09;;;;;;;29.33;4.53;;;;;;;4.60;85.31;102192.22;5282071;28;20433;-69
2021/03/16 01:03:40;;;;;;;27.67;4.78;;;;;;;4.60;84.26;102189.63;5283643;28;20032;-68
2021/03/16 01:06:11;;;;;;;28.10;4.82;;;;;;;4.57;84.60;102187.16;5278880;28;20036;-68
2021/03/16 01:08:43;;;;;;;23.33;3.63;;;;;;;4.53;84.75;102191.59;5280428;28;20028;-69
2021/03/16 01:11:14;;;;;;;30.98;4.13;;;;;;;4.54;84.55;102187.25;5281626;28;20028;-69
2021/03/16 01:13:46;;;;;;;23.58;4.32;;;;;;;4.50;84.90;102193.47;5261991;28;20568;-69
2021/03/16 01:16:17;;;;;;;28.52;4.85;;;;;;;4.53;84.29;102191.59;5281895;28;20085;-68
2021/03/16 01:18:48;;;;;;;20.15;4.72;;;;;;;4.55;84.15;102201.94;5277330;28;20036;-68
2021/03/16 01:21:19;;;;;;;25.25;4.20;;;;;;;4.54;84.73;102203.66;5279977;28;20268;-69
2021/03/16 01:23:51;;;;;;;31.55;4.63;;;;;;;4.55;84.74;102201.94;5281233;28;20481;-68
2021/03/16 01:26:22;;;;;;;19.60;3.65;;;;;;;4.56;84.23;102201.03;5282206;28;20590;-69
2021/03/16 01:28:53;;;;;;;23.67;4.00;;;;;;;4.63;84.27;102192.97;5280968;28;20061;-69
2021/03/16 01:31:24;;;;;;;29.77;4.88;;;;;;;4.60;84.27;102197.41;5281482;28;20596;-68
2021/03/16 01:33:56;;;;;;;24.83;4.43;;;;;;;4.59;85.32;102208.72;5282986;28;20032;-69
2021/03/16 01:36:27;;;;;;;23.95;4.20;;;;;;;4.62;84.73;102198.19;5280258;28;20061;-68
2021/03/16 01:38:58;;;;;;;27.75;4.88;;;;;;;4.61;84.46;102215.50;5279842;28;20443;-69
2021/03/16 01:41:30;;;;;;;24.63;4.22;;;;;;;4.62;84.34;102205.97;5280310;28;20481;-69
2021/03/16 01:44:01;;;;;;;24.88;4.43;;;;;;;4.61;84.76;102209.47;5282892;28;20055;-68
2021/03/16 01:46:33;;;;;;;24.95;4.97;;;;;;;4.64;83.85;102210.22;5283009;28;20081;-68
2021/03/16 01:49:05;;;;;;;21.45;4.38;;;;;;;4.63;84.61;102208.53;5278716;28;20378;-69
2021/03/16 01:51:37;;;;;;;26.88;4.70;;;;;;;4.65;84.42;102208.47;5278348;28;20026;-69
2021/03/16 01:54:08;;;;;;;30.02;4.55;;;;;;;4.67;84.14;102208.41;5280956;28;20024;-69
2021/03/16 01:56:41;;;;;;;30.00;4.68;;;;;;;4.66;84.43;102204.97;5281297;28;20038;-69
2021/03/16 01:59:16;;;;;;;30.08;4.65;;;;;;;4.65;84.26;102208.47;5282419;28;20055;-68
2021/03/16 02:01:48;;;;;;;26.30;4.05;;;;;;;4.66;84.05;102211.91;5278167;28;20055;-68
2021/03/16 02:04:19;;;;;;;23.05;3.53;;;;;;;4.68;83.75;102208.34;5280038;28;20020;-68
2021/03/16 02:07:04;;;;;;;29.27;5.18;;;;;;;4.74;83.94;102207.28;5286941;28;20063;-68
2021/03/16 02:10:02;;;;;;;24.23;3.65;;;;;;;4.75;83.99;102212.41;5284090;28;20402;-69
2021/03/16 02:13:01;;;;;;;30.55;4.75;;;;;;;4.74;83.75;102208.13;5272910;28;20110;-68
2021/03/16 02:15:39;;;;;;;21.58;3.75;;;;;;;4.72;83.32;102206.47;5281093;28;20028;-69
2021/03/16 02:18:16;;;;;;;20.60;3.88;;;;;;;4.73;83.48;102214.19;5279007;28;20506;-69
2021/03/16 02:21:09;;;;;;;28.70;3.90;;;;;;;4.82;82.95;102221.66;5282845;28;20602;-69
2021/03/16 02:23:55;;;;;;;19.50;3.45;;;;;;;4.77;83.37;102214.94;5281083;28;20418;-69
2021/03/16 02:27:00;;;;;;;22.75;3.33;;;;;;;4.76;83.20;102223.63;5281682;28;20375;-69
2021/03/16 02:29:34;;;;;;;;;;;;;;;4.83;82.25;102204.31;5278582;28;20033;-69
2021/03/16 02:32:10;;;;;;;22.98;3.50;;;;;;;4.82;83.20;102228.59;5280722;28;20651;-69
2021/03/16 02:34:45;;;;;;;21.88;4.13;;;;;;;4.78;83.02;102221.84;5276270;28;20044;-69
2021/03/16 02:37:18;;;;;;;24.27;4.20;;;;;;;4.77;82.27;102222.72;5279288;28;20032;-69
2021/03/16 02:39:52;;;;;;;21.30;4.22;;;;;;;4.75;82.73;102221.94;5281999;28;20065;-70
2021/03/16 02:42:25;;;;;;;22.45;4.65;;;;;;;4.75;83.24;102229.72;5280456;28;20082;-69
2021/03/16 02:44:57;;;;;;;24.45;4.00;;;;;;;4.78;82.80;102232.22;5281102;28;20024;-69
2021/03/16 02:47:28;;;;;;;17.80;3.92;;;;;;;4.79;82.64;102224.34;5262070;28;20035;-69
2021/03/16 02:50:00;;;;;;;32.38;4.22;;;;;;;4.78;82.70;102230.47;5278859;28;20243;-69
2021/03/16 02:52:32;;;;;;;20.38;3.38;;;;;;;4.80;82.50;102230.41;5279817;28;20077;-70
2021/03/16 02:55:05;;;;;;;25.23;3.67;;;;;;;4.80;82.83;102227.81;5278807;28;20547;-69
2021/03/16 02:57:38;;;;;;;29.75;4.32;;;;;;;4.81;82.76;102227.75;5280953;28;20066;-69
2021/03/16 03:00:10;;;;;;;;;;;;;;;4.92;81.84;102227.31;5280555;28;20028;-69
2021/03/16 03:02:45;;;;;;;23.20;4.20;;;;;;;4.81;82.69;102227.75;5279356;28;19927;-69
2021/03/16 03:05:18;;;;;;;17.65;3.53;;;;;;;4.80;82.78;102233.84;5272233;28;20028;-69
2021/03/16 03:07:50;;;;;;;18.27;3.88;;;;;;;4.85;82.69;102234.53;5280822;28;20485;-69
2021/03/16 03:10:23;;;;;;;22.98;3.67;;;;;;;4.85;82.56;102236.28;5279504;28;20484;-69
2021/03/16 03:12:55;;;;;;;25.83;3.67;;;;;;;4.82;82.73;102231.19;5277018;28;20613;-69
2021/03/16 03:15:26;;;;;;;21.55;3.72;;;;;;;4.82;82.58;102236.38;5280122;28;20020;-69
2021/03/16 03:17:57;;;;;;;24.85;3.60;;;;;;;4.78;82.91;102233.06;5270177;28;20035;-69
2021/03/16 03:20:29;;;;;;;20.38;3.58;;;;;;;4.85;82.50;102242.31;5277937;28;20082;-69
2021/03/16 03:23:18;;;;;;;24.63;3.67;;;;;;;4.87;82.25;102245.69;5280042;28;20495;-69
2021/03/16 03:25:54;;;;;;;17.25;3.83;;;;;;;4.89;81.99;102240.44;5274267;28;20042;-70
2021/03/16 03:28:28;;;;;;;18.73;3.67;;;;;;;4.90;81.62;102249.06;5279258;28;20232;-69
2021/03/16 03:31:02;;;;;;;18.25;4.07;;;;;;;4.86;81.40;102256.13;5279162;28;20473;-69
2021/03/16 03:33:36;;;;;;;20.63;4.13;;;;;;;4.86;82.23;102245.75;5273771;28;20028;-69
2021/03/16 03:36:08;;;;;;;20.13;3.70;;;;;;;4.89;81.73;102248.22;5282436;28;21494;-69
2021/03/16 03:38:40;;;;;;;16.02;3.20;;;;;;;4.88;81.42;102249.13;5278738;28;20024;-69
2021/03/16 03:41:12;;;;;;;20.35;4.13;;;;;;;4.85;81.42;102244.91;5279174;28;20028;-69
2021/03/16 03:43:43;;;;;;;19.25;3.28;;;;;;;4.86;80.78;102259.56;5275006;28;20031;-70
2021/03/16 03:46:16;;;;;;;21.58;3.20;;;;;;;4.83;81.20;102259.69;5277576;28;20032;-69
2021/03/16 03:48:48;;;;;;;18.03;2.90;;;;;;;4.82;80.92;102255.41;5276419;28;20462;-69
2021/03/16 03:51:20;;;;;;;17.23;3.22;;;;;;;4.83;81.06;102257.09;5274812;28;20835;-69
2021/03/16 03:53:53;;;;;;;19.25;3.25;;;;;;;4.73;81.17;102249.69;5277691;28;20107;-69
2021/03/16 03:56:26;;;;;;;23.98;3.47;;;;;;;4.78;81.31;102269.41;5278069;28;20278;-69
2021/03/16 03:58:59;;;;;;;20.27;3.33;;;;;;;4.76;81.38;102263.41;5279311;28;20038;-69
2021/03/16 04:01:31;;;;;;;15.55;3.55;;;;;;;4.76;81.43;102271.22;5258102;28;20041;-69
2021/03/16 04:04:03;;;;;;;17.05;3.28;;;;;;;4.73;81.14;102267.88;5276951;28;20114;-69
2021/03/16 04:06:36;;;;;;;22.83;3.17;;;;;;;4.64;81.24;102258.69;5280792;28;20667;-69
2021/03/16 04:09:07;;;;;;;25.67;4.05;;;;;;;4.67;81.59;102265.53;5280084;28;20028;-69
2021/03/16 04:11:39;;;;;;;22.15;3.80;;;;;;;4.66;82.29;102266.41;5281959;28;20448;-69
2021/03/16 04:14:11;;;;;;;23.10;3.15;;;;;;;4.54;82.19;102254.72;5279044;28;20025;-69
2021/03/16 04:16:43;;;;;;;26.88;3.47;;;;;;;4.52;82.21;102262.59;5279140;28;21125;-69
2021/03/16 04:19:14;;;;;;;32.95;4.28;;;;;;;4.51;83.24;102263.50;5276336;28;20024;-69
2021/03/16 04:21:46;;;;;;;18.73;3.45;;;;;;;4.50;83.18;102274.75;5273914;28;20510;-69
2021/03/16 04:24:19;;;;;;;18.02;4.03;;;;;;;4.48;83.10;102276.59;5275729;28;20042;-69
2021/03/16 04:26:51;;;;;;;23.30;4.00;;;;;;;4.46;83.79;102280.13;5277317;28;20489;-69
2021/03/16 04:29:22;;;;;;;20.65;4.13;;;;;;;4.45;83.31;102276.69;5284003;28;20154;-69
2021/03/16 04:31:53;;;;;;;22.70;3.75;;;;;;;4.43;84.35;102283.66;5276360;28;20029;-69
2021/03/16 04:34:25;;;;;;;23.40;4.25;;;;;;;4.44;84.35;102280.19;5275281;28;20405;-69
2021/03/16 04:36:56;;;;;;;17.00;3.63;;;;;;;4.46;84.02;102282.72;5279535;28;20027;-69
2021/03/16 04:39:27;;;;;;;21.98;4.10;;;;;;;4.42;83.79;102287.16;5278086;28;20521;-69
2021/03/16 04:41:58;;;;;;;28.25;4.53;;;;;;;4.44;83.89;102287.13;5277923;28;20493;-69
2021/03/16 04:44:30;;;;;;;23.63;4.45;;;;;;;4.45;84.75;102284.47;5274212;28;20031;-69
2021/03/16 04:47:02;;;;;;;25.58;4.55;;;;;;;4.43;84.75;102288.00;5281472;28;20460;-69
2021/03/16 04:49:33;;;;;;;21.50;4.28;;;;;;;4.44;85.30;102284.53;5277974;28;20112;-69
2021/03/16 04:52:04;;;;;;;20.27;3.95;;;;;;;4.39;85.28;102280.38;5277441;28;20028;-69
2021/03/16 04:54:36;;;;;;;25.95;4.25;;;;;;;4.44;85.34;102290.56;5280346;28;20173;-69
2021/03/16 04:57:07;;;;;;;25.45;4.13;;;;;;;4.43;85.71;102296.63;5277284;28;20039;-69
2021/03/16 04:59:39;;;;;;;32.60;4.35;;;;;;;4.43;86.32;102290.59;5279824;28;20405;-69
2021/03/16 05:02:10;;;;;;;26.92;4.35;;;;;;;4.43;85.58;102293.19;5269175;28;20024;-69
2021/03/16 05:04:42;;;;;;;22.65;4.82;;;;;;;4.45;86.44;102307.81;5275903;28;20044;-69
2021/03/16 05:07:13;;;;;;;25.67;4.47;;;;;;;4.43;85.99;102299.22;5279242;28;20035;-69
2021/03/16 05:09:45;;;;;;;28.33;4.65;;;;;;;4.47;86.24;102299.97;5276666;28;20028;-69
2021/03/16 05:12:16;;;;;;;27.00;5.28;;;;;;;4.44;86.18;102303.53;5279556;28;20060;-69
2021/03/16 05:14:47;;;;;;;34.63;6.10;;;;;;;4.48;86.57;102296.50;5279176;28;20036;-69
2021/03/16 05:17:18;;;;;;;25.15;5.57;;;;;;;4.47;86.01;102300.84;5278000;28;20028;-69
2021/03/16 05:19:50;;;;;;;25.42;5.50;;;;;;;4.48;86.42;102312.91;5274862;28;20429;-70
2021/03/16 05:22:21;;;;;;;25.55;4.97;;;;;;;4.49;86.62;102313.75;5278625;28;20036;-69
2021/03/16 05:24:52;;;;;;;25.38;5.20;;;;;;;4.49;87.18;102308.56;5279203;28;20119;-69
2021/03/16 05:27:23;;;;;;;27.63;4.60;;;;;;;4.49;86.95;102312.00;5281387;28;20039;-69
2021/03/16 05:29:55;;;;;;;25.02;4.50;;;;;;;4.54;87.15;102309.22;5276229;28;20033;-69
2021/03/16 05:32:26;;;;;;;24.50;4.78;;;;;;;4.54;86.29;102317.03;5282371;28;20032;-69
2021/03/16 05:34:57;;;;;;;21.67;5.05;;;;;;;4.55;87.00;102324.78;5280218;28;20028;-69
2021/03/16 05:37:28;;;;;;;34.50;5.65;;;;;;;4.58;86.78;102323.78;5283281;28;20131;-69
2021/03/16 05:40:00;;;;;;;20.77;5.30;;;;;;;4.58;86.78;102326.38;5284942;28;20025;-69
2021/03/16 05:42:31;;;;;;;25.75;4.78;;;;;;;4.59;86.61;102315.13;5285218;28;20104;-69
2021/03/16 05:45:03;;;;;;;27.40;5.05;;;;;;;4.60;86.64;102320.25;5280215;28;20837;-69
2021/03/16 05:47:36;;;;;;;22.17;5.38;;;;;;;4.59;86.57;102299.56;5279155;28;20138;-69
2021/03/16 05:50:08;;;;;;;22.90;5.22;;;;;;;4.61;86.60;102315.91;5283323;28;20499;-70
2021/03/16 05:52:40;;;;;;;23.80;4.75;;;;;;;4.64;86.36;102321.84;5280992;28;20187;-69
2021/03/16 05:55:12;;;;;;;28.27;5.10;;;;;;;4.64;86.13;102334.81;5261797;28;20031;-69
2021/03/16 05:57:44;;;;;;;34.28;5.80;;;;;;;4.68;85.88;102337.31;5279036;28;20024;-69
2021/03/16 06:00:16;;;;;;;21.80;4.63;;;;;;;4.67;85.74;102322.63;5283593;28;20028;-69
2021/03/16 06:02:49;;;;;;;18.10;4.13;;;;;;;4.69;86.33;102331.19;5277123;28;20481;-69
2021/03/16 06:05:20;;;;;;;21.52;4.75;;;;;;;4.69;86.24;102326.84;5285275;28;20023;-69
2021/03/16 06:07:52;;;;;;;22.63;4.75;;;;;;;4.72;85.84;102346.66;5281251;28;20036;-69
2021/03/16 06:10:24;;;;;;;24.33;4.88;;;;;;;4.73;86.14;102338.81;5278585;28;20439;-70
2021/03/16 06:12:55;;;;;;;21.95;5.88;;;;;;;4.70;85.52;102330.28;5280383;28;20026;-69
2021/03/16 06:15:26;;;;;;;31.98;6.18;;;;;;;4.76;85.93;102333.50;5278387;28;20032;-69
2021/03/16 06:17:58;;;;;;;17.98;4.82;;;;;;;4.78;85.91;102338.66;5278738;28;20519;-69
2021/03/16 06:20:30;;;;;;;20.35;4.25;;;;;;;4.80;85.74;102332.50;5278019;28;20063;-69
2021/03/16 06:23:13;;;;;;;20.52;5.22;;;;;;;4.85;86.37;102342.75;5278013;28;20039;-70
2021/03/16 06:25:45;;;;;;;22.27;4.87;;;;;;;4.81;86.13;102333.34;5280022;28;20076;-69
2021/03/16 06:28:16;;;;;;;29.23;5.95;;;;;;;4.85;86.12;102334.94;5280541;28;20032;-69
2021/03/16 06:30:49;;;;;;;26.10;6.57;;;;;;;4.88;86.14;102338.25;5282401;28;20044;-70
2021/03/16 06:33:22;;;;;;;25.83;5.32;;;;;;;4.92;85.51;102341.59;5283219;28;20024;-69
2021/03/16 06:36:07;;;;;;;26.25;5.30;;;;;;;4.99;85.82;102337.00;5273612;28;20036;-70
2021/03/16 06:38:39;;;;;;;21.88;5.15;;;;;;;4.98;85.86;102343.13;5277867;28;20500;-69
2021/03/16 06:41:20;;;;;;;33.70;6.15;;;;;;;5.04;85.94;102343.75;5279405;28;20021;-69
2021/03/16 06:44:04;;;;;;;23.45;5.35;;;;;;;5.08;86.19;102350.53;5280167;28;20141;-69
2021/03/16 06:46:36;;;;;;;;;;;;;;;5.21;85.17;102347.44;5278558;28;20028;-69
2021/03/16 06:49:15;;;;;;;28.92;5.93;;;;;;;5.17;85.79;102343.28;5283613;28;20606;-69
2021/03/16 06:51:46;;;;;;;24.92;6.00;;;;;;;5.18;85.18;102344.97;5278094;28;20652;-70
2021/03/16 06:54:20;;;;;;;26.42;6.13;;;;;;;5.18;84.87;102344.97;5269495;28;20028;-69
2021/03/16 06:57:02;;;;;;;19.10;5.05;;;;;;;5.24;85.38;102344.75;5279379;28;20038;-69
2021/03/16 06:59:33;;;;;;;27.80;5.82;;;;;;;5.25;85.52;102346.41;5247929;28;20421;-70
2021/03/16 07:02:15;;;;;;;23.77;6.13;;;;;;;5.26;85.76;102341.16;5275765;28;20047;-69
2021/03/16 07:04:47;;;;;;;27.55;6.68;;;;;;;5.30;86.25;102354.88;5276247;28;20020;-69
2021/03/16 07:07:20;;;;;;;26.02;6.18;;;;;;;5.25;85.73;102349.03;5282575;28;20521;-70
2021/03/16 07:09:54;;;;;;;24.95;5.53;;;;;;;5.35;85.26;102355.56;5279275;28;20049;-70
2021/03/16 07:12:32;;;;;;;24.33;6.20;;;;;;;5.35;85.60;102347.78;5274584;28;20044;-72
2021/03/16 07:15:04;;;;;;;22.75;6.00;;;;;;;5.39;84.74;102357.13;5277476;28;20032;-70
2021/03/16 07:17:37;;;;;;;24.27;6.93;;;;;;;5.43;84.72;102356.09;5278862;28;20081;-71
2021/03/16 07:20:09;;;;;;;27.10;5.97;;;;;;;5.45;84.62;102359.47;5277043;28;20113;-71
2021/03/16 07:22:50;;;;;;;29.45;7.35;;;;;;;5.47;85.18;102357.69;5280015;28;20024;-71
2021/03/16 07:25:22;;;;;;;25.45;5.97;;;;;;;5.50;84.67;102365.38;5274725;28;20350;-71
2021/03/16 07:27:53;;;;;;;25.23;5.45;;;;;;;5.50;84.98;102367.97;5274327;28;20032;-71
2021/03/16 07:30:25;;;;;;;23.02;6.55;;;;;;;5.52;84.80;102365.28;5280228;28;20131;-71
2021/03/16 07:33:00;;;;;;;20.42;5.68;;;;;;;5.55;84.81;102362.59;5277530;28;20494;-72
2021/03/16 07:35:34;;;;;;;31.27;6.95;;;;;;;5.56;84.72;102361.66;5278632;28;20028;-70
2021/03/16 07:38:06;;;;;;;26.40;7.13;;;;;;;5.64;83.71;102372.59;5279095;28;20539;-70
2021/03/16 07:40:43;;;;;;;22.67;6.22;;;;;;;5.66;84.11;102372.56;5274371;28;20084;-71
2021/03/16 07:43:15;;;;;;;25.70;6.20;;;;;;;5.69;84.53;102372.44;5276045;28;20043;-71
2021/03/16 07:45:46;;;;;;;28.35;7.68;;;;;;;5.69;83.79;102375.88;5272732;28;20081;-71
2021/03/16 07:48:21;;;;;;;28.10;8.13;;;;;;;5.72;83.86;102378.38;5254865;28;20440;-71
2021/03/16 07:50:52;;;;;;;22.98;6.88;;;;;;;5.68;84.35;102371.56;5272133;28;20033;-72
2021/03/16 07:53:27;;;;;;;25.10;7.00;;;;;;;5.74;84.04;102380.91;5269923;28;20474;-71
2021/03/16 07:56:06;;;;;;;22.08;6.47;;;;;;;5.79;83.94;102386.75;5277519;28;20028;-71
2021/03/16 07:58:45;;;;;;;26.40;6.85;;;;;;;5.84;84.07;102382.22;5272848;28;20032;-71
2021/03/16 08:01:17;;;;;;;21.23;5.20;;;;;;;5.82;82.67;102387.47;5275097;28;20461;-71
2021/03/16 08:03:50;;;;;;;19.33;4.45;;;;;;;5.87;82.23;102379.47;5260088;28;20110;-72
2021/03/16 08:06:26;;;;;;;24.33;5.30;;;;;;;5.95;82.12;102382.69;5274111;28;20032;-72
2021/03/16 08:08:57;;;;;;;21.42;4.78;;;;;;;5.97;81.93;102385.19;5267799;28;20024;-71
2021/03/16 08:11:42;;;;;;;23.88;4.75;;;;;;;6.06;82.06;102380.47;5278367;28;20040;-72
2021/03/16 08:14:29;;;;;;;25.88;5.53;;;;;;;6.11;82.50;102390.69;5268094;28;20043;-71
2021/03/16 08:17:01;;;;;;;26.58;5.03;;;;;;;6.17;81.22;102384.38;5256477;28;20115;-72
2021/03/16 08:19:39;;;;;;;19.85;4.40;;;;;;;6.18;81.49;102386.94;5277135;28;20020;-71
2021/03/16 08:22:20;;;;;;;26.17;4.78;;;;;;;6.28;81.45;102392.59;5278378;28;20036;-71
2021/03/16 08:24:58;;;;;;;24.15;4.75;;;;;;;6.22;80.68;102391.09;5276175;28;20071;-71
2021/03/16 08:27:32;;;;;;;24.13;4.85;;;;;;;6.31;82.07;102393.31;5274454;28;20122;-71
2021/03/16 08:30:08;;;;;;;21.17;5.22;;;;;;;6.26;80.79;102384.84;5275047;28;20655;-71
2021/03/16 08:32:40;;;;;;;21.17;4.97;;;;;;;6.34;80.47;102392.34;5281281;28;20042;-72
2021/03/16 08:35:16;;;;;;;25.25;5.28;;;;;;;6.32;80.99;102381.13;5272614;28;20468;-73
2021/03/16 08:37:51;;;;;;;28.13;5.57;;;;;;;6.36;80.18;102395.69;5272493;28;20032;-72
2021/03/16 08:40:23;;;;;;;25.27;5.72;;;;;;;6.38;81.24;102387.84;5274106;28;20118;-72
2021/03/16 08:42:55;;;;;;;22.58;5.43;;;;;;;6.38;80.67;102396.50;5274140;28;20499;-72
2021/03/16 08:45:28;;;;;;;17.73;4.18;;;;;;;6.38;79.48;102396.50;5271809;28;20143;-72
2021/03/16 08:48:00;;;;;;;19.63;4.43;;;;;;;6.34;79.24;102387.13;5276167;28;20055;-72
2021/03/16 08:50:31;;;;;;;18.60;4.07;;;;;;;6.36;78.48;102390.50;5274774;28;20442;-72
2021/03/16 08:53:03;;;;;;;16.48;4.03;;;;;;;6.38;78.55;102395.66;5273390;28;20081;-72
2021/03/16 08:55:35;;;;;;;17.02;4.25;;;;;;;6.32;78.38;102381.97;5272384;28;20440;-72
2021/03/16 08:58:10;;;;;;;18.80;5.28;;;;;;;6.41;78.75;102391.16;5273181;28;20222;-72
2021/03/16 09:00:41;;;;;;;16.60;4.00;;;;;;;6.46;78.21;102390.97;5277235;28;20043;-72
2021/03/16 09:03:13;;;;;;;16.70;3.85;;;;;;;6.48;78.01;102392.59;5277134;28;20024;-73
2021/03/16 09:05:44;;;;;;;14.70;3.67;;;;;;;6.58;76.53;102404.28;5275297;28;20524;-72
2021/03/16 09:08:16;;;;;;;18.88;3.47;;;;;;;6.64;77.27;102397.16;5274929;28;20031;-72
2021/03/16 09:10:48;;;;;;;22.10;4.00;;;;;;;6.74;77.81;102403.63;5277288;28;20024;-72
2021/03/16 09:13:29;;;;;;;13.17;2.90;;;;;;;6.81;77.26;102408.50;5277796;28;20024;-73
2021/03/16 09:16:01;;;;;;;12.43;2.65;;;;;;;6.82;75.98;102415.44;5283129;28;20497;-72
2021/03/16 09:18:33;;;;;;;11.98;2.70;;;;;;;6.76;77.04;102413.06;5279235;28;20036;-72
2021/03/16 09:21:05;;;;;;;14.43;3.80;;;;;;;6.81;77.38;102405.91;5279048;28;20045;-72
2021/03/16 09:23:36;;;;;;;13.70;3.33;;;;;;;6.82;76.69;102410.22;5275011;28;20081;-72
2021/03/16 09:26:08;;;;;;;13.82;3.28;;;;;;;6.86;76.95;102412.66;5272955;28;20669;-73
2021/03/16 09:28:39;;;;;;;20.27;3.42;;;;;;;6.76;77.22;102400.06;5283061;28;20063;-72
2021/03/16 09:31:12;;;;;;;18.13;3.42;;;;;;;6.84;77.79;102425.75;5279976;28;20064;-72
2021/03/16 09:33:44;;;;;;;17.87;3.83;;;;;;;6.84;77.50;102417.94;5275163;28;20429;-72
2021/03/16 09:36:25;;;;;;;21.40;3.75;;;;;;;6.89;77.79;102417.75;5272651;28;20698;-73
2021/03/16 09:38:58;;;;;;;18.20;4.35;;;;;;;6.87;78.45;102417.81;5271359;28;20029;-72
2021/03/16 09:41:29;;;;;;;13.77;3.60;;;;;;;6.85;77.39;102405.75;5270064;28;20032;-72
2021/03/16 09:44:00;;;;;;;16.67;3.80;;;;;;;6.83;77.71;102404.09;5275858;28;20024;-72
2021/03/16 09:46:31;;;;;;;15.18;3.45;;;;;;;6.80;76.96;102400.75;5278300;28;20032;-72
2021/03/16 09:49:03;;;;;;;15.63;4.10;;;;;;;6.89;78.23;102405.56;5277287;28;20085;-72
2021/03/16 09:51:34;;;;;;;16.77;3.30;;;;;;;6.86;77.94;102404.84;5281018;28;20031;-72
2021/03/16 09:54:05;;;;;;;14.73;3.75;;;;;;;6.82;77.83;102415.44;5273777;28;20040;-72
2021/03/16 09:56:36;;;;;;;14.05;3.65;;;;;;;6.85;78.26;102408.38;5274960;28;20220;-73
2021/03/16 09:59:12;;;;;;;16.23;3.92;;;;;;;6.89;77.98;102405.56;5278205;28;20466;-72
2021/03/16 10:01:44;;;;;;;20.15;4.38;;;;;;;6.88;77.73;102416.91;5276664;28;20024;-72
2021/03/16 10:04:16;;;;;;;9.70;3.97;;;;;;;6.90;78.28;102415.09;5274510;28;20032;-72
2021/03/16 10:06:47;;;;;;;16.85;4.05;;;;;;;6.95;78.40;102410.50;5278400;28;20452;-72
2021/03/16 10:09:20;;;;;;;16.85;5.00;;;;;;;6.91;77.71;102419.38;5275202;28;20059;-72
2021/03/16 10:11:52;;;;;;;9.95;3.42;;;;;;;6.88;76.76;102419.50;5279454;28;20119;-72
2021/03/16 10:14:28;;;;;;;14.20;3.92;;;;;;;6.79;76.65;102425.97;5278365;28;20097;-72
2021/03/16 10:17:00;;;;;;;10.18;3.00;;;;;;;6.69;76.66;102427.28;5278307;28;20036;-72
2021/03/16 10:19:31;;;;;;;12.80;3.33;;;;;;;6.62;77.60;102420.63;5279618;28;20333;-72
2021/03/16 10:22:12;;;;;;;14.30;3.42;;;;;;;6.58;77.75;102432.09;5276189;28;20554;-72
2021/03/16 10:24:44;;;;;;;12.43;3.20;;;;;;;6.43;77.89;102438.78;5278293;28;20031;-72
2021/03/16 10:27:30;;;;;;;6.80;2.67;;;;;;;6.36;77.71;102445.16;5256156;28;20032;-72
2021/03/16 10:30:07;;;;;;;9.57;3.03;;;;;;;6.16;78.45;102426.94;5278037;28;20417;-73
2021/03/16 10:32:38;;;;;;;12.43;3.53;;;;;;;6.06;79.76;102432.53;5281288;28;20108;-72
2021/03/16 10:35:10;;;;;;;11.45;3.83;;;;;;;6.03;80.60;102434.41;5275191;28;20110;-72
2021/03/16 10:37:45;;;;;;;9.40;2.97;;;;;;;6.06;81.36;102437.72;5279004;28;20733;-72
2021/03/16 10:40:16;;;;;;;8.32;2.65;;;;;;;5.97;80.85;102432.03;5275915;28;20411;-72
2021/03/16 10:42:48;;;;;;;10.48;2.92;;;;;;;5.96;80.77;102438.16;5277067;28;20054;-72
2021/03/16 10:45:20;;;;;;;10.77;2.30;;;;;;;5.94;82.58;102443.38;5277802;28;20078;-72
2021/03/16 10:47:51;;;;;;;10.55;2.70;;;;;;;5.97;81.51;102437.22;5280605;28;20107;-72
2021/03/16 10:50:22;;;;;;;11.95;2.35;;;;;;;5.91;80.66;102430.50;5277047;28;20037;-72
2021/03/16 10:52:54;;;;;;;7.43;1.70;;;;;;;5.93;79.52;102428.69;5277809;28;20107;-72
2021/03/16 10:55:25;;;;;;;8.38;1.60;;;;;;;5.98;80.06;102429.34;5277752;28;20025;-72
2021/03/16 10:57:56;;;;;;;11.45;1.55;;;;;;;6.04;80.06;102421.31;5275953;28;20083;-72
2021/03/16 11:00:28;;;;;;;8.80;1.67;;;;;;;6.12;81.89;102414.97;5280274;28;20462;-72
2021/03/16 11:02:59;;;;;;;9.30;2.15;;;;;;;6.20;81.43;102418.09;5274390;28;20035;-72
2021/03/16 11:05:31;;;;;;;8.25;1.60;;;;;;;6.24;82.40;102411.84;5279562;28;20042;-73
2021/03/16 11:08:03;;;;;;;8.25;1.80;;;;;;;6.24;79.13;102409.25;5277492;28;20028;-73
2021/03/16 11:10:34;;;;;;;6.82;1.75;;;;;;;6.25;80.43;102421.34;5274045;28;20777;-72
2021/03/16 11:13:07;;;;;;;8.25;1.90;;;;;;;6.17;80.98;102418.19;5271494;28;20059;-70
2021/03/16 11:15:38;;;;;;;8.80;2.35;;;;;;;6.16;81.55;102419.13;5272102;28;20028;-70
2021/03/16 11:18:10;;;;;;;7.95;1.85;;;;;;;6.20;81.22;102424.13;5274994;28;20805;-70
2021/03/16 11:20:41;;;;;;;9.05;2.10;;;;;;;6.17;80.53;102424.25;5278673;28;20546;-70
2021/03/16 11:23:12;;;;;;;5.32;1.80;;;;;;;6.08;80.54;102428.09;5277566;28;20139;-71
2021/03/16 11:25:43;;;;;;;9.13;1.80;;;;;;;6.02;79.94;102424.88;5273175;28;20480;-72
2021/03/16 11:28:15;;;;;;;9.68;2.10;;;;;;;5.94;80.99;102422.59;5276584;28;21526;-70
2021/03/16 11:30:46;;;;;;;6.55;1.70;;;;;;;5.89;81.35;102424.50;5271247;28;20414;-71
2021/03/16 11:33:17;;;;;;;6.25;1.70;;;;;;;5.82;81.45;102415.25;5273141;28;20440;-71
2021/03/16 11:35:48;;;;;;;5.72;1.77;;;;;;;5.81;82.00;102418.75;5273629;28;20028;-72
2021/03/16 11:38:20;;;;;;;7.88;2.10;;;;;;;5.79;82.49;102416.19;5270029;28;20025;-71
2021/03/16 11:40:52;;;;;;;8.48;1.90;;;;;;;5.76;82.86;102405.09;5269130;28;20127;-71
2021/03/16 11:43:23;;;;;;;8.98;2.03;;;;;;;5.78;82.85;102405.88;5276255;28;20032;-71
2021/03/16 11:45:54;;;;;;;6.20;1.58;;;;;;;5.92;82.77;102416.63;5275280;28;20581;-71
2021/03/16 11:48:25;;;;;;;6.40;1.75;;;;;;;5.95;82.91;102411.28;5268891;28;20558;-71
2021/03/16 11:50:57;;;;;;;6.05;1.45;;;;;;;6.04;82.46;102407.47;5273772;28;20024;-71
2021/03/16 11:53:28;;;;;;;5.72;1.90;;;;;;;6.00;81.52;102408.50;5275309;28;20347;-71